sensor_id;sensor_type;location;lat;lon;timestamp;P1;durP1;ratioP1;P2;durP2;ratioP2
28766;SDS011;15921;52.034;20.650;2022-11-21T00:01:00;159.35;;;55.03;;
28766;SDS011;15921;52.034;20.650;2022-11-21T00:03:36;146.90;;;50.25;;
28766;SDS011;15921;52.034;20.650;2022-11-21T00:06:02;153.85;;;52.08;;
28766;SDS011;15921;52.034;20.650;2022-11-21T00:08:28;145.10;;;51.97;;
28766;SDS011;15921;52.034;20.650;2022-11-21T00:10:57;149.57;;;53.17;;
28766;SDS011;15921;52.034;20.650;2022-11-21T00:13:23;157.90;;;53.80;;
28766;SDS011;15921;52.034;20.650;2022-11-21T00:15:49;148.90;;;54.03;;
28766;SDS011;15921;52.034;20.650;2022-11-21T00:18:14;144.57;;;54.35;;
28766;SDS011;15921;52.034;20.650;2022-11-21T00:20:40;147.10;;;52.78;;
28766;SDS011;15921;52.034;20.650;2022-11-21T00:23:07;148.77;;;50.92;;
28766;SDS011;15921;52.034;20.650;2022-11-21T00:25:33;152.48;;;53.65;;
28766;SDS011;15921;52.034;20.650;2022-11-21T00:27:59;143.13;;;53.10;;
28766;SDS011;15921;52.034;20.650;2022-11-21T00:30:25;143.80;;;53.47;;
28766;SDS011;15921;52.034;20.650;2022-11-21T00:32:50;145.95;;;51.08;;
28766;SDS011;15921;52.034;20.650;2022-11-21T00:35:16;139.75;;;48.83;;
28766;SDS011;15921;52.034;20.650;2022-11-21T00:37:42;141.77;;;51.45;;
28766;SDS011;15921;52.034;20.650;2022-11-21T00:40:08;129.43;;;49.03;;
28766;SDS011;15921;52.034;20.650;2022-11-21T00:42:34;145.52;;;50.63;;
28766;SDS011;15921;52.034;20.650;2022-11-21T00:44:59;146.10;;;52.85;;
28766;SDS011;15921;52.034;20.650;2022-11-21T00:47:25;133.68;;;48.85;;
28766;SDS011;15921;52.034;20.650;2022-11-21T00:49:50;132.60;;;48.05;;
28766;SDS011;15921;52.034;20.650;2022-11-21T00:52:16;142.57;;;51.35;;
28766;SDS011;15921;52.034;20.650;2022-11-21T00:54:42;142.98;;;50.75;;
28766;SDS011;15921;52.034;20.650;2022-11-21T00:57:08;131.35;;;45.83;;
28766;SDS011;15921;52.034;20.650;2022-11-21T00:59:33;136.15;;;51.38;;
28766;SDS011;15921;52.034;20.650;2022-11-21T01:01:59;132.70;;;49.08;;
28766;SDS011;15921;52.034;20.650;2022-11-21T01:04:25;140.38;;;48.90;;
28766;SDS011;15921;52.034;20.650;2022-11-21T01:06:54;134.43;;;49.00;;
28766;SDS011;15921;52.034;20.650;2022-11-21T01:09:19;128.88;;;48.17;;
28766;SDS011;15921;52.034;20.650;2022-11-21T01:11:45;139.55;;;49.28;;
28766;SDS011;15921;52.034;20.650;2022-11-21T01:14:10;138.07;;;48.17;;
28766;SDS011;15921;52.034;20.650;2022-11-21T01:16:36;127.90;;;44.85;;
28766;SDS011;15921;52.034;20.650;2022-11-21T01:19:02;132.23;;;47.00;;
28766;SDS011;15921;52.034;20.650;2022-11-21T01:21:28;127.68;;;48.67;;
28766;SDS011;15921;52.034;20.650;2022-11-21T01:23:57;128.50;;;47.85;;
28766;SDS011;15921;52.034;20.650;2022-11-21T01:26:24;129.65;;;47.65;;
28766;SDS011;15921;52.034;20.650;2022-11-21T01:28:52;127.43;;;46.00;;
28766;SDS011;15921;52.034;20.650;2022-11-21T01:31:27;138.55;;;47.83;;
28766;SDS011;15921;52.034;20.650;2022-11-21T01:33:55;133.43;;;47.72;;
28766;SDS011;15921;52.034;20.650;2022-11-21T01:36:26;155.82;;;51.55;;
28766;SDS011;15921;52.034;20.650;2022-11-21T01:38:54;149.07;;;50.15;;
28766;SDS011;15921;52.034;20.650;2022-11-21T01:43:54;133.80;;;48.80;;
28766;SDS011;15921;52.034;20.650;2022-11-21T01:46:20;143.38;;;50.45;;
28766;SDS011;15921;52.034;20.650;2022-11-21T01:53:45;144.43;;;50.05;;
28766;SDS011;15921;52.034;20.650;2022-11-21T01:56:17;146.32;;;48.67;;
28766;SDS011;15921;52.034;20.650;2022-11-21T01:58:44;148.27;;;52.72;;
28766;SDS011;15921;52.034;20.650;2022-11-21T02:01:11;131.57;;;47.28;;
28766;SDS011;15921;52.034;20.650;2022-11-21T02:03:37;150.18;;;50.08;;
28766;SDS011;15921;52.034;20.650;2022-11-21T02:06:05;136.20;;;48.08;;
28766;SDS011;15921;52.034;20.650;2022-11-21T02:08:33;150.18;;;51.47;;
28766;SDS011;15921;52.034;20.650;2022-11-21T02:11:04;152.52;;;50.13;;
28766;SDS011;15921;52.034;20.650;2022-11-21T02:13:40;151.48;;;48.53;;
28766;SDS011;15921;52.034;20.650;2022-11-21T02:16:06;145.15;;;48.08;;
28766;SDS011;15921;52.034;20.650;2022-11-21T02:18:32;144.10;;;47.22;;
28766;SDS011;15921;52.034;20.650;2022-11-21T02:21:20;131.23;;;45.40;;
28766;SDS011;15921;52.034;20.650;2022-11-21T02:24:16;150.50;;;48.33;;
28766;SDS011;15921;52.034;20.650;2022-11-21T02:26:56;145.38;;;49.28;;
28766;SDS011;15921;52.034;20.650;2022-11-21T02:29:23;133.32;;;47.50;;
28766;SDS011;15921;52.034;20.650;2022-11-21T02:31:49;150.15;;;50.13;;
28766;SDS011;15921;52.034;20.650;2022-11-21T02:34:16;143.65;;;50.00;;
28766;SDS011;15921;52.034;20.650;2022-11-21T02:36:43;145.80;;;50.03;;
28766;SDS011;15921;52.034;20.650;2022-11-21T02:39:18;156.18;;;49.47;;
28766;SDS011;15921;52.034;20.650;2022-11-21T02:41:53;138.60;;;47.50;;
28766;SDS011;15921;52.034;20.650;2022-11-21T02:44:43;135.13;;;47.13;;
28766;SDS011;15921;52.034;20.650;2022-11-21T02:47:21;131.98;;;45.25;;
28766;SDS011;15921;52.034;20.650;2022-11-21T02:52:32;143.35;;;48.88;;
28766;SDS011;15921;52.034;20.650;2022-11-21T02:54:58;147.93;;;50.22;;
28766;SDS011;15921;52.034;20.650;2022-11-21T02:57:23;138.90;;;46.17;;
28766;SDS011;15921;52.034;20.650;2022-11-21T02:59:49;146.60;;;50.38;;
28766;SDS011;15921;52.034;20.650;2022-11-21T03:02:14;150.52;;;48.65;;
28766;SDS011;15921;52.034;20.650;2022-11-21T03:04:40;139.60;;;49.15;;
28766;SDS011;15921;52.034;20.650;2022-11-21T03:07:06;136.05;;;46.83;;
28766;SDS011;15921;52.034;20.650;2022-11-21T03:09:31;131.63;;;45.67;;
28766;SDS011;15921;52.034;20.650;2022-11-21T03:11:57;129.00;;;45.72;;
28766;SDS011;15921;52.034;20.650;2022-11-21T03:14:22;130.82;;;45.25;;
28766;SDS011;15921;52.034;20.650;2022-11-21T03:16:48;131.38;;;45.60;;
28766;SDS011;15921;52.034;20.650;2022-11-21T03:19:13;139.30;;;47.30;;
28766;SDS011;15921;52.034;20.650;2022-11-21T03:21:39;139.00;;;48.03;;
28766;SDS011;15921;52.034;20.650;2022-11-21T03:24:05;151.82;;;48.63;;
28766;SDS011;15921;52.034;20.650;2022-11-21T03:26:31;158.20;;;48.58;;
28766;SDS011;15921;52.034;20.650;2022-11-21T03:28:56;138.23;;;48.28;;
28766;SDS011;15921;52.034;20.650;2022-11-21T03:31:22;144.00;;;48.38;;
28766;SDS011;15921;52.034;20.650;2022-11-21T03:33:48;138.98;;;46.47;;
28766;SDS011;15921;52.034;20.650;2022-11-21T03:36:13;153.77;;;49.08;;
28766;SDS011;15921;52.034;20.650;2022-11-21T03:38:39;147.93;;;49.55;;
28766;SDS011;15921;52.034;20.650;2022-11-21T03:41:04;143.57;;;47.13;;
28766;SDS011;15921;52.034;20.650;2022-11-21T03:43:50;140.18;;;47.50;;
28766;SDS011;15921;52.034;20.650;2022-11-21T03:46:16;143.45;;;47.72;;
28766;SDS011;15921;52.034;20.650;2022-11-21T03:48:41;131.95;;;45.90;;
28766;SDS011;15921;52.034;20.650;2022-11-21T03:51:07;143.02;;;46.17;;
28766;SDS011;15921;52.034;20.650;2022-11-21T03:53:33;144.73;;;47.90;;
28766;SDS011;15921;52.034;20.650;2022-11-21T03:55:58;134.88;;;46.78;;
28766;SDS011;15921;52.034;20.650;2022-11-21T03:58:24;140.35;;;45.05;;
28766;SDS011;15921;52.034;20.650;2022-11-21T04:00:49;138.07;;;48.53;;
28766;SDS011;15921;52.034;20.650;2022-11-21T04:03:15;142.52;;;47.45;;
28766;SDS011;15921;52.034;20.650;2022-11-21T04:05:42;142.60;;;46.45;;
28766;SDS011;15921;52.034;20.650;2022-11-21T04:08:08;141.57;;;48.50;;
28766;SDS011;15921;52.034;20.650;2022-11-21T04:10:34;143.02;;;45.92;;
28766;SDS011;15921;52.034;20.650;2022-11-21T04:12:59;138.43;;;46.08;;
28766;SDS011;15921;52.034;20.650;2022-11-21T04:15:25;138.75;;;44.65;;
28766;SDS011;15921;52.034;20.650;2022-11-21T04:17:50;123.18;;;43.20;;
28766;SDS011;15921;52.034;20.650;2022-11-21T04:20:17;134.18;;;44.92;;
28766;SDS011;15921;52.034;20.650;2022-11-21T04:22:42;141.43;;;47.30;;
28766;SDS011;15921;52.034;20.650;2022-11-21T04:25:08;137.05;;;46.72;;
28766;SDS011;15921;52.034;20.650;2022-11-21T04:27:34;141.05;;;48.05;;
28766;SDS011;15921;52.034;20.650;2022-11-21T04:29:59;129.45;;;44.75;;
28766;SDS011;15921;52.034;20.650;2022-11-21T04:32:25;137.68;;;44.80;;
28766;SDS011;15921;52.034;20.650;2022-11-21T04:34:50;127.07;;;45.47;;
28766;SDS011;15921;52.034;20.650;2022-11-21T04:37:16;144.65;;;45.70;;
28766;SDS011;15921;52.034;20.650;2022-11-21T04:39:42;157.93;;;48.25;;
28766;SDS011;15921;52.034;20.650;2022-11-21T04:42:07;134.52;;;43.58;;
28766;SDS011;15921;52.034;20.650;2022-11-21T04:44:33;130.80;;;46.28;;
28766;SDS011;15921;52.034;20.650;2022-11-21T04:46:58;144.88;;;48.03;;
28766;SDS011;15921;52.034;20.650;2022-11-21T04:49:24;156.65;;;50.42;;
28766;SDS011;15921;52.034;20.650;2022-11-21T04:51:50;152.38;;;49.92;;
28766;SDS011;15921;52.034;20.650;2022-11-21T04:54:15;135.88;;;45.05;;
28766;SDS011;15921;52.034;20.650;2022-11-21T04:56:41;135.35;;;47.70;;
28766;SDS011;15921;52.034;20.650;2022-11-21T04:59:06;135.60;;;47.03;;
28766;SDS011;15921;52.034;20.650;2022-11-21T05:01:32;133.38;;;46.20;;
28766;SDS011;15921;52.034;20.650;2022-11-21T05:03:58;139.18;;;44.97;;
28766;SDS011;15921;52.034;20.650;2022-11-21T05:06:24;142.25;;;45.03;;
28766;SDS011;15921;52.034;20.650;2022-11-21T05:08:49;134.93;;;45.33;;
28766;SDS011;15921;52.034;20.650;2022-11-21T05:11:15;145.73;;;44.80;;
28766;SDS011;15921;52.034;20.650;2022-11-21T05:13:59;127.47;;;43.20;;
28766;SDS011;15921;52.034;20.650;2022-11-21T05:16:25;122.68;;;42.92;;
28766;SDS011;15921;52.034;20.650;2022-11-21T05:18:50;130.02;;;44.08;;
28766;SDS011;15921;52.034;20.650;2022-11-21T05:21:16;125.75;;;43.17;;
28766;SDS011;15921;52.034;20.650;2022-11-21T05:23:41;133.52;;;43.65;;
28766;SDS011;15921;52.034;20.650;2022-11-21T05:26:07;135.85;;;43.80;;
28766;SDS011;15921;52.034;20.650;2022-11-21T05:28:32;123.70;;;43.60;;
28766;SDS011;15921;52.034;20.650;2022-11-21T05:30:58;120.35;;;41.58;;
28766;SDS011;15921;52.034;20.650;2022-11-21T05:33:23;127.00;;;45.03;;
28766;SDS011;15921;52.034;20.650;2022-11-21T05:35:49;145.10;;;45.50;;
28766;SDS011;15921;52.034;20.650;2022-11-21T05:38:15;132.77;;;45.78;;
28766;SDS011;15921;52.034;20.650;2022-11-21T05:40:40;122.00;;;42.55;;
28766;SDS011;15921;52.034;20.650;2022-11-21T05:43:06;129.68;;;44.00;;
28766;SDS011;15921;52.034;20.650;2022-11-21T05:45:52;127.95;;;44.05;;
28766;SDS011;15921;52.034;20.650;2022-11-21T05:48:18;136.07;;;45.50;;
28766;SDS011;15921;52.034;20.650;2022-11-21T05:50:45;129.80;;;43.75;;
28766;SDS011;15921;52.034;20.650;2022-11-21T05:53:13;152.57;;;48.13;;
28766;SDS011;15921;52.034;20.650;2022-11-21T05:55:39;134.80;;;46.30;;
28766;SDS011;15921;52.034;20.650;2022-11-21T05:58:04;119.03;;;42.67;;
28766;SDS011;15921;52.034;20.650;2022-11-21T06:00:30;133.15;;;43.20;;
28766;SDS011;15921;52.034;20.650;2022-11-21T06:02:57;122.55;;;42.78;;
28766;SDS011;15921;52.034;20.650;2022-11-21T06:05:41;127.82;;;42.33;;
28766;SDS011;15921;52.034;20.650;2022-11-21T06:08:07;125.95;;;41.38;;
28766;SDS011;15921;52.034;20.650;2022-11-21T06:10:32;123.53;;;43.20;;
28766;SDS011;15921;52.034;20.650;2022-11-21T06:12:59;127.65;;;40.78;;
28766;SDS011;15921;52.034;20.650;2022-11-21T06:15:25;121.18;;;41.03;;
28766;SDS011;15921;52.034;20.650;2022-11-21T06:17:51;116.35;;;40.20;;
28766;SDS011;15921;52.034;20.650;2022-11-21T06:20:16;136.23;;;43.42;;
28766;SDS011;15921;52.034;20.650;2022-11-21T06:22:42;138.52;;;43.83;;
28766;SDS011;15921;52.034;20.650;2022-11-21T06:25:08;120.43;;;43.13;;
28766;SDS011;15921;52.034;20.650;2022-11-21T06:27:33;122.88;;;41.05;;
28766;SDS011;15921;52.034;20.650;2022-11-21T06:29:59;127.90;;;42.53;;
28766;SDS011;15921;52.034;20.650;2022-11-21T06:32:24;128.82;;;43.53;;
28766;SDS011;15921;52.034;20.650;2022-11-21T06:34:50;130.32;;;43.38;;
28766;SDS011;15921;52.034;20.650;2022-11-21T06:37:15;141.57;;;44.22;;
28766;SDS011;15921;52.034;20.650;2022-11-21T06:39:41;135.23;;;43.72;;
28766;SDS011;15921;52.034;20.650;2022-11-21T06:42:07;131.57;;;43.45;;
28766;SDS011;15921;52.034;20.650;2022-11-21T06:44:32;143.10;;;43.90;;
28766;SDS011;15921;52.034;20.650;2022-11-21T06:46:58;125.15;;;43.85;;
28766;SDS011;15921;52.034;20.650;2022-11-21T06:49:23;119.85;;;43.92;;
28766;SDS011;15921;52.034;20.650;2022-11-21T06:51:49;148.95;;;45.78;;
28766;SDS011;15921;52.034;20.650;2022-11-21T06:54:14;120.32;;;39.67;;
28766;SDS011;15921;52.034;20.650;2022-11-21T06:56:40;151.45;;;45.60;;
28766;SDS011;15921;52.034;20.650;2022-11-21T06:59:06;130.20;;;42.90;;
28766;SDS011;15921;52.034;20.650;2022-11-21T07:01:31;123.45;;;41.67;;
28766;SDS011;15921;52.034;20.650;2022-11-21T07:03:57;124.57;;;44.63;;
28766;SDS011;15921;52.034;20.650;2022-11-21T07:06:22;122.55;;;42.20;;
28766;SDS011;15921;52.034;20.650;2022-11-21T07:08:50;121.70;;;42.15;;
28766;SDS011;15921;52.034;20.650;2022-11-21T07:11:18;120.75;;;42.10;;
28766;SDS011;15921;52.034;20.650;2022-11-21T07:13:44;131.60;;;43.63;;
28766;SDS011;15921;52.034;20.650;2022-11-21T07:16:10;113.40;;;40.25;;
28766;SDS011;15921;52.034;20.650;2022-11-21T07:18:39;128.13;;;43.38;;
28766;SDS011;15921;52.034;20.650;2022-11-21T07:21:06;114.07;;;40.60;;
28766;SDS011;15921;52.034;20.650;2022-11-21T07:23:33;118.18;;;39.40;;
28766;SDS011;15921;52.034;20.650;2022-11-21T07:26:00;111.53;;;39.30;;
28766;SDS011;15921;52.034;20.650;2022-11-21T07:28:29;103.65;;;36.88;;
28766;SDS011;15921;52.034;20.650;2022-11-21T07:30:56;113.32;;;37.70;;
28766;SDS011;15921;52.034;20.650;2022-11-21T07:33:22;106.95;;;36.28;;
28766;SDS011;15921;52.034;20.650;2022-11-21T07:35:48;104.05;;;36.30;;
28766;SDS011;15921;52.034;20.650;2022-11-21T07:38:14;87.95;;;33.33;;
28766;SDS011;15921;52.034;20.650;2022-11-21T07:40:39;97.13;;;33.03;;
28766;SDS011;15921;52.034;20.650;2022-11-21T07:43:05;77.03;;;31.20;;
28766;SDS011;15921;52.034;20.650;2022-11-21T07:45:32;93.88;;;33.10;;
28766;SDS011;15921;52.034;20.650;2022-11-21T07:48:02;93.57;;;34.50;;
28766;SDS011;15921;52.034;20.650;2022-11-21T07:50:29;90.72;;;32.58;;
28766;SDS011;15921;52.034;20.650;2022-11-21T07:52:58;96.85;;;33.60;;
28766;SDS011;15921;52.034;20.650;2022-11-21T07:55:25;80.18;;;30.55;;
28766;SDS011;15921;52.034;20.650;2022-11-21T07:58:27;93.60;;;31.38;;
28766;SDS011;15921;52.034;20.650;2022-11-21T08:00:45;96.17;;;33.43;;
28766;SDS011;15921;52.034;20.650;2022-11-21T08:03:11;82.25;;;30.52;;
28766;SDS011;15921;52.034;20.650;2022-11-21T08:05:38;82.95;;;30.95;;
28766;SDS011;15921;52.034;20.650;2022-11-21T08:08:05;83.68;;;30.25;;
28766;SDS011;15921;52.034;20.650;2022-11-21T08:10:31;78.15;;;31.25;;
28766;SDS011;15921;52.034;20.650;2022-11-21T08:12:57;75.80;;;30.17;;
28766;SDS011;15921;52.034;20.650;2022-11-21T08:15:23;81.05;;;30.52;;
28766;SDS011;15921;52.034;20.650;2022-11-21T08:17:48;79.80;;;28.77;;
28766;SDS011;15921;52.034;20.650;2022-11-21T08:20:14;76.38;;;29.08;;
28766;SDS011;15921;52.034;20.650;2022-11-21T08:22:40;70.13;;;28.00;;
28766;SDS011;15921;52.034;20.650;2022-11-21T08:25:06;70.25;;;25.95;;
28766;SDS011;15921;52.034;20.650;2022-11-21T08:27:34;72.80;;;27.75;;
28766;SDS011;15921;52.034;20.650;2022-11-21T08:30:00;80.22;;;28.85;;
28766;SDS011;15921;52.034;20.650;2022-11-21T08:32:26;74.88;;;28.17;;
28766;SDS011;15921;52.034;20.650;2022-11-21T08:34:51;66.28;;;27.27;;
28766;SDS011;15921;52.034;20.650;2022-11-21T08:37:17;68.95;;;27.13;;
28766;SDS011;15921;52.034;20.650;2022-11-21T08:39:42;58.10;;;24.33;;
28766;SDS011;15921;52.034;20.650;2022-11-21T08:42:08;52.58;;;23.40;;
28766;SDS011;15921;52.034;20.650;2022-11-21T08:44:34;63.70;;;24.65;;
28766;SDS011;15921;52.034;20.650;2022-11-21T08:47:00;61.72;;;23.50;;
28766;SDS011;15921;52.034;20.650;2022-11-21T08:49:26;51.63;;;19.75;;
28766;SDS011;15921;52.034;20.650;2022-11-21T08:51:52;53.58;;;18.95;;
28766;SDS011;15921;52.034;20.650;2022-11-21T08:54:19;48.00;;;19.67;;
28766;SDS011;15921;52.034;20.650;2022-11-21T08:56:46;52.22;;;20.20;;
28766;SDS011;15921;52.034;20.650;2022-11-21T08:59:13;44.97;;;19.98;;
28766;SDS011;15921;52.034;20.650;2022-11-21T09:01:39;49.28;;;19.90;;
28766;SDS011;15921;52.034;20.650;2022-11-21T09:04:05;55.53;;;20.75;;
28766;SDS011;15921;52.034;20.650;2022-11-21T09:06:31;47.67;;;19.48;;
28766;SDS011;15921;52.034;20.650;2022-11-21T09:08:57;52.10;;;20.67;;
28766;SDS011;15921;52.034;20.650;2022-11-21T09:11:22;52.20;;;19.48;;
28766;SDS011;15921;52.034;20.650;2022-11-21T09:13:51;45.17;;;18.30;;
28766;SDS011;15921;52.034;20.650;2022-11-21T09:16:36;48.63;;;17.98;;
28766;SDS011;15921;52.034;20.650;2022-11-21T09:19:20;47.63;;;17.50;;
28766;SDS011;15921;52.034;20.650;2022-11-21T09:21:50;46.88;;;18.92;;
28766;SDS011;15921;52.034;20.650;2022-11-21T09:24:16;48.05;;;19.92;;
28766;SDS011;15921;52.034;20.650;2022-11-21T09:26:42;46.05;;;19.63;;
28766;SDS011;15921;52.034;20.650;2022-11-21T09:29:08;52.28;;;20.58;;
28766;SDS011;15921;52.034;20.650;2022-11-21T09:31:35;50.75;;;21.30;;
28766;SDS011;15921;52.034;20.650;2022-11-21T09:34:02;42.67;;;20.30;;
28766;SDS011;15921;52.034;20.650;2022-11-21T09:36:27;48.05;;;20.42;;
28766;SDS011;15921;52.034;20.650;2022-11-21T09:38:53;46.33;;;20.73;;
28766;SDS011;15921;52.034;20.650;2022-11-21T09:46:50;43.08;;;19.35;;
28766;SDS011;15921;52.034;20.650;2022-11-21T09:49:21;45.97;;;19.90;;
28766;SDS011;15921;52.034;20.650;2022-11-21T09:51:49;40.58;;;18.48;;
28766;SDS011;15921;52.034;20.650;2022-11-21T09:54:23;51.85;;;20.25;;
28766;SDS011;15921;52.034;20.650;2022-11-21T09:56:55;46.55;;;19.17;;
28766;SDS011;15921;52.034;20.650;2022-11-21T09:59:34;42.80;;;18.77;;
28766;SDS011;15921;52.034;20.650;2022-11-21T10:02:01;39.40;;;18.60;;
28766;SDS011;15921;52.034;20.650;2022-11-21T10:04:35;41.42;;;19.42;;
28766;SDS011;15921;52.034;20.650;2022-11-21T10:07:05;50.78;;;20.38;;
28766;SDS011;15921;52.034;20.650;2022-11-21T10:23:59;47.20;;;21.65;;
28766;SDS011;15921;52.034;20.650;2022-11-21T10:29:24;55.47;;;23.60;;
28766;SDS011;15921;52.034;20.650;2022-11-21T10:32:03;59.17;;;23.08;;
28766;SDS011;15921;52.034;20.650;2022-11-21T10:35:00;50.80;;;22.73;;
28766;SDS011;15921;52.034;20.650;2022-11-21T10:37:37;51.22;;;21.88;;
28766;SDS011;15921;52.034;20.650;2022-11-21T10:42:50;55.30;;;21.65;;
28766;SDS011;15921;52.034;20.650;2022-11-21T10:45:49;50.92;;;21.48;;
28766;SDS011;15921;52.034;20.650;2022-11-21T10:48:16;49.00;;;22.67;;
28766;SDS011;15921;52.034;20.650;2022-11-21T10:53:30;49.22;;;22.67;;
28766;SDS011;15921;52.034;20.650;2022-11-21T10:56:18;57.67;;;23.33;;
28766;SDS011;15921;52.034;20.650;2022-11-21T10:58:50;47.77;;;21.93;;
28766;SDS011;15921;52.034;20.650;2022-11-21T11:03:44;54.75;;;22.63;;
28766;SDS011;15921;52.034;20.650;2022-11-21T11:06:10;51.33;;;22.15;;
28766;SDS011;15921;52.034;20.650;2022-11-21T11:08:48;53.38;;;22.23;;
28766;SDS011;15921;52.034;20.650;2022-11-21T11:11:15;47.63;;;22.35;;
28766;SDS011;15921;52.034;20.650;2022-11-21T11:13:56;54.75;;;24.25;;
28766;SDS011;15921;52.034;20.650;2022-11-21T11:16:30;56.97;;;24.42;;
28766;SDS011;15921;52.034;20.650;2022-11-21T11:18:59;54.38;;;24.13;;
28766;SDS011;15921;52.034;20.650;2022-11-21T11:26:34;60.70;;;25.85;;
28766;SDS011;15921;52.034;20.650;2022-11-21T11:29:13;62.05;;;27.52;;
28766;SDS011;15921;52.034;20.650;2022-11-21T11:34:19;70.35;;;28.92;;
28766;SDS011;15921;52.034;20.650;2022-11-21T11:36:52;71.88;;;31.27;;
28766;SDS011;15921;52.034;20.650;2022-11-21T11:47:55;75.03;;;33.55;;
28766;SDS011;15921;52.034;20.650;2022-11-21T11:50:26;72.35;;;32.65;;
28766;SDS011;15921;52.034;20.650;2022-11-21T11:53:02;80.93;;;35.25;;
28766;SDS011;15921;52.034;20.650;2022-11-21T11:55:31;76.95;;;34.40;;
28766;SDS011;15921;52.034;20.650;2022-11-21T11:58:24;72.40;;;32.13;;
28766;SDS011;15921;52.034;20.650;2022-11-21T12:01:12;86.88;;;36.85;;
28766;SDS011;15921;52.034;20.650;2022-11-21T12:06:58;88.57;;;35.45;;
28766;SDS011;15921;52.034;20.650;2022-11-21T12:12:02;83.78;;;35.45;;
28766;SDS011;15921;52.034;20.650;2022-11-21T12:17:31;84.97;;;33.70;;
28766;SDS011;15921;52.034;20.650;2022-11-21T12:20:02;82.70;;;34.20;;
28766;SDS011;15921;52.034;20.650;2022-11-21T12:22:37;72.80;;;30.80;;
28766;SDS011;15921;52.034;20.650;2022-11-21T12:25:03;76.22;;;33.05;;
28766;SDS011;15921;52.034;20.650;2022-11-21T12:27:34;77.75;;;34.08;;
28766;SDS011;15921;52.034;20.650;2022-11-21T12:35:45;80.22;;;34.20;;
28766;SDS011;15921;52.034;20.650;2022-11-21T12:44:09;82.18;;;34.65;;
28766;SDS011;15921;52.034;20.650;2022-11-21T12:49:51;81.85;;;35.85;;
28766;SDS011;15921;52.034;20.650;2022-11-21T12:52:49;82.07;;;35.05;;
28766;SDS011;15921;52.034;20.650;2022-11-21T12:55:58;91.05;;;36.65;;
28766;SDS011;15921;52.034;20.650;2022-11-21T12:58:34;81.28;;;32.95;;
28766;SDS011;15921;52.034;20.650;2022-11-21T13:03:58;75.57;;;31.17;;
28766;SDS011;15921;52.034;20.650;2022-11-21T13:06:30;83.75;;;34.67;;
28766;SDS011;15921;52.034;20.650;2022-11-21T13:09:01;75.82;;;32.45;;
28766;SDS011;15921;52.034;20.650;2022-11-21T13:27:42;80.30;;;33.97;;
28766;SDS011;15921;52.034;20.650;2022-11-21T13:38:02;94.30;;;37.85;;
28766;SDS011;15921;52.034;20.650;2022-11-21T13:48:53;91.70;;;39.45;;
28766;SDS011;15921;52.034;20.650;2022-11-21T14:00:02;88.03;;;34.92;;
28766;SDS011;15921;52.034;20.650;2022-11-21T14:08:21;93.38;;;39.28;;
28766;SDS011;15921;52.034;20.650;2022-11-21T14:10:49;88.97;;;36.75;;
28766;SDS011;15921;52.034;20.650;2022-11-21T14:13:20;93.28;;;37.83;;
28766;SDS011;15921;52.034;20.650;2022-11-21T14:15:52;98.30;;;37.83;;
28766;SDS011;15921;52.034;20.650;2022-11-21T14:18:42;99.10;;;40.50;;
28766;SDS011;15921;52.034;20.650;2022-11-21T14:21:17;102.13;;;40.50;;
28766;SDS011;15921;52.034;20.650;2022-11-21T14:23:56;90.88;;;36.80;;
28766;SDS011;15921;52.034;20.650;2022-11-21T14:26:25;98.70;;;41.15;;
28766;SDS011;15921;52.034;20.650;2022-11-21T14:28:57;93.53;;;37.38;;
28766;SDS011;15921;52.034;20.650;2022-11-21T14:32:01;108.22;;;42.88;;
28766;SDS011;15921;52.034;20.650;2022-11-21T14:34:27;103.47;;;39.67;;
28766;SDS011;15921;52.034;20.650;2022-11-21T14:36:56;107.55;;;42.97;;
28766;SDS011;15921;52.034;20.650;2022-11-21T14:39:25;102.57;;;41.67;;
28766;SDS011;15921;52.034;20.650;2022-11-21T14:41:56;106.35;;;43.22;;
28766;SDS011;15921;52.034;20.650;2022-11-21T14:44:27;104.72;;;40.30;;
28766;SDS011;15921;52.034;20.650;2022-11-21T14:47:35;104.13;;;40.35;;
28766;SDS011;15921;52.034;20.650;2022-11-21T14:49:53;100.57;;;39.92;;
28766;SDS011;15921;52.034;20.650;2022-11-21T14:52:21;109.40;;;41.15;;
28766;SDS011;15921;52.034;20.650;2022-11-21T14:54:52;102.82;;;39.10;;
28766;SDS011;15921;52.034;20.650;2022-11-21T14:57:23;102.25;;;40.90;;
28766;SDS011;15921;52.034;20.650;2022-11-21T14:59:51;105.88;;;42.53;;
28766;SDS011;15921;52.034;20.650;2022-11-21T15:02:22;106.70;;;42.22;;
28766;SDS011;15921;52.034;20.650;2022-11-21T15:04:50;90.88;;;39.25;;
28766;SDS011;15921;52.034;20.650;2022-11-21T15:09:46;108.10;;;43.35;;
28766;SDS011;15921;52.034;20.650;2022-11-21T15:12:12;95.93;;;38.72;;
28766;SDS011;15921;52.034;20.650;2022-11-21T15:14:44;106.07;;;42.10;;
28766;SDS011;15921;52.034;20.650;2022-11-21T15:17:26;110.32;;;44.95;;
28766;SDS011;15921;52.034;20.650;2022-11-21T15:20:03;99.50;;;41.90;;
28766;SDS011;15921;52.034;20.650;2022-11-21T15:22:35;112.60;;;46.78;;
28766;SDS011;15921;52.034;20.650;2022-11-21T15:27:33;115.32;;;48.40;;
28766;SDS011;15921;52.034;20.650;2022-11-21T15:30:04;104.25;;;42.83;;
28766;SDS011;15921;52.034;20.650;2022-11-21T15:38:18;118.80;;;45.25;;
28766;SDS011;15921;52.034;20.650;2022-11-21T15:43:39;112.88;;;47.63;;
28766;SDS011;15921;52.034;20.650;2022-11-21T15:46:20;119.53;;;45.95;;
28766;SDS011;15921;52.034;20.650;2022-11-21T15:48:49;117.90;;;46.55;;
28766;SDS011;15921;52.034;20.650;2022-11-21T15:54:14;124.80;;;48.33;;
28766;SDS011;15921;52.034;20.650;2022-11-21T15:56:41;115.22;;;45.38;;
28766;SDS011;15921;52.034;20.650;2022-11-21T15:59:07;110.00;;;44.65;;
28766;SDS011;15921;52.034;20.650;2022-11-21T16:01:33;108.53;;;43.80;;
28766;SDS011;15921;52.034;20.650;2022-11-21T16:04:00;108.47;;;42.83;;
28766;SDS011;15921;52.034;20.650;2022-11-21T16:06:27;109.72;;;43.83;;
28766;SDS011;15921;52.034;20.650;2022-11-21T16:08:54;99.18;;;39.35;;
28766;SDS011;15921;52.034;20.650;2022-11-21T16:11:23;92.80;;;38.17;;
28766;SDS011;15921;52.034;20.650;2022-11-21T16:13:56;108.43;;;41.22;;
28766;SDS011;15921;52.034;20.650;2022-11-21T16:16:23;109.22;;;42.40;;
28766;SDS011;15921;52.034;20.650;2022-11-21T16:18:54;107.97;;;41.97;;
28766;SDS011;15921;52.034;20.650;2022-11-21T16:21:21;104.70;;;38.42;;
28766;SDS011;15921;52.034;20.650;2022-11-21T16:23:47;106.55;;;39.10;;
28766;SDS011;15921;52.034;20.650;2022-11-21T16:26:13;100.97;;;39.35;;
28766;SDS011;15921;52.034;20.650;2022-11-21T16:28:39;110.95;;;42.92;;
28766;SDS011;15921;52.034;20.650;2022-11-21T16:31:05;105.55;;;40.97;;
28766;SDS011;15921;52.034;20.650;2022-11-21T16:33:31;88.78;;;37.70;;
28766;SDS011;15921;52.034;20.650;2022-11-21T16:35:58;105.45;;;41.80;;
28766;SDS011;15921;52.034;20.650;2022-11-21T16:38:24;104.68;;;40.00;;